Time;durP1;ratioP1;P1;durP2;ratioP2;P2;SDS_P1;SDS_P2;PMS_P1;PMS_P2;Temp;Humidity;BMP_temperature;BMP_pressure;BME280_temperature;BME280_humidity;BME280_pressure;Samples;Min_cycle;Max_cycle;Signal;HPM_P1;HPM_P2
2023/03/23 00:02:28;;;;;;;23.13;15.30;;;9.70;99.90;;;;;;4841593;29;20297;-75
2023/03/23 00:04:55;;;;;;;26.77;18.43;;;9.70;99.90;;;;;;4856587;29;20424;-74
2023/03/23 00:07:27;;;;;;;25.73;18.93;;;9.70;99.90;;;;;;4872310;29;20292;-75
2023/03/23 00:09:54;;;;;;;31.03;20.60;;;9.80;99.90;;;;;;4857454;29;20285;-75
2023/03/23 00:12:28;;;;;;;32.17;20.85;;;9.80;99.90;;;;;;4858110;29;20293;-75
2023/03/23 00:14:57;;;;;;;30.07;21.10;;;9.80;99.90;;;;;;4841140;29;20498;-75
2023/03/23 00:17:23;;;;;;;30.93;21.43;;;9.90;99.90;;;;;;4848617;29;20294;-74
2023/03/23 00:19:49;;;;;;;33.00;20.63;;;9.90;99.90;;;;;;4867663;29;20814;-75
2023/03/23 00:22:16;;;;;;;27.70;19.57;;;9.80;99.90;;;;;;4840799;29;20297;-74
2023/03/23 00:24:43;;;;;;;28.70;19.43;;;9.80;99.90;;;;;;4856998;29;20297;-74
2023/03/23 00:27:12;;;;;;;33.37;19.23;;;9.80;99.90;;;;;;4856273;29;20329;-74
2023/03/23 00:29:38;;;;;;;27.93;18.23;;;9.80;99.90;;;;;;4869558;29;20302;-75
2023/03/23 00:32:04;;;;;;;23.00;15.33;;;9.80;99.90;;;;;;4861999;29;20305;-74
2023/03/23 00:34:32;;;;;;;20.57;12.73;;;9.80;99.90;;;;;;4871940;29;20884;-75
2023/03/23 00:36:58;;;;;;;16.10;10.77;;;9.70;99.90;;;;;;4857179;29;20468;-75
2023/03/23 00:39:26;;;;;;;13.27;7.77;;;9.60;99.90;;;;;;4829976;29;20061;-75
2023/03/23 00:41:54;;;;;;;10.53;6.00;;;9.60;99.90;;;;;;4854423;29;20305;-75
2023/03/23 00:44:23;;;;;;;8.70;5.23;;;9.50;99.90;;;;;;4865274;29;20293;-74
2023/03/23 00:46:49;;;;;;;10.82;5.80;;;9.50;99.90;;;;;;4860036;29;20297;-75
2023/03/23 00:49:17;;;;;;;11.75;6.53;;;9.50;99.90;;;;;;4870221;29;20088;-75
2023/03/23 00:51:46;;;;;;;12.52;7.05;;;9.40;99.90;;;;;;4855261;29;20498;-74
2023/03/23 00:54:12;;;;;;;13.70;8.40;;;9.50;99.90;;;;;;4833928;29;20677;-75
2023/03/23 00:56:41;;;;;;;13.67;10.03;;;9.50;99.90;;;;;;4881226;29;20377;-74
2023/03/23 00:59:06;;;;;;;17.70;10.63;;;9.50;99.90;;;;;;4874840;29;20049;-74
2023/03/23 01:01:33;;;;;;;18.17;11.67;;;9.60;99.90;;;;;;4844576;29;20583;-74
2023/03/23 01:04:03;;;;;;;17.80;12.00;;;9.60;99.90;;;;;;4868735;29;20132;-74
2023/03/23 01:06:35;;;;;;;14.37;11.43;;;9.60;99.90;;;;;;4852318;29;20294;-74
2023/03/23 01:09:03;;;;;;;21.13;12.23;;;9.80;99.90;;;;;;4872819;29;20380;-74
2023/03/23 01:11:29;;;;;;;16.47;11.27;;;9.80;99.90;;;;;;4874656;29;20298;-74
2023/03/23 01:13:55;;;;;;;19.33;11.23;;;9.80;99.90;;;;;;4861606;29;20722;-74
2023/03/23 01:16:21;;;;;;;15.77;10.73;;;9.90;99.90;;;;;;4860440;29;20309;-74
2023/03/23 01:18:47;;;;;;;17.00;10.13;;;9.90;99.90;;;;;;4840774;29;20347;-75
2023/03/23 01:21:15;;;;;;;18.87;10.43;;;9.90;99.90;;;;;;4869004;29;20301;-74
2023/03/23 01:23:42;;;;;;;14.80;9.83;;;9.90;99.90;;;;;;4855998;29;20468;-74
2023/03/23 01:26:14;;;;;;;14.17;9.57;;;9.90;99.90;;;;;;4848624;29;20331;-74
2023/03/23 01:28:41;;;;;;;15.33;9.03;;;9.90;99.90;;;;;;4858876;29;20365;-74
2023/03/23 01:31:11;;;;;;;15.73;9.03;;;9.90;99.90;;;;;;4874069;29;20311;-74
2023/03/23 01:33:38;;;;;;;14.33;8.90;;;10.00;99.90;;;;;;4870465;29;20357;-74
2023/03/23 01:36:13;;;;;;;16.50;8.87;;;10.00;99.90;;;;;;4856567;29;20863;-74
2023/03/23 01:38:39;;;;;;;13.83;8.37;;;10.00;99.90;;;;;;4849507;29;20312;-74
2023/03/23 01:41:05;;;;;;;12.47;6.97;;;10.00;99.90;;;;;;4843826;29;20041;-74
2023/03/23 01:43:31;;;;;;;8.97;6.87;;;10.00;99.90;;;;;;4867229;29;20301;-74
2023/03/23 01:45:57;;;;;;;12.27;6.90;;;10.10;99.90;;;;;;4857014;29;20484;-74
2023/03/23 01:48:36;;;;;;;10.93;6.70;;;10.10;99.90;;;;;;4870022;29;20281;-75
2023/03/23 01:51:08;;;;;;;12.10;6.93;;;10.10;99.90;;;;;;4875045;29;20613;-75
2023/03/23 01:53:40;;;;;;;10.63;6.27;;;10.00;99.90;;;;;;4862001;29;20285;-75
2023/03/23 01:56:08;;;;;;;9.27;6.43;;;10.10;99.90;;;;;;4852101;29;20290;-74
2023/03/23 01:58:38;;;;;;;12.87;6.60;;;10.10;99.90;;;;;;4886127;29;20288;-75
2023/03/23 02:01:07;;;;;;;9.70;6.00;;;10.10;99.90;;;;;;4875140;29;20380;-75
2023/03/23 02:03:36;;;;;;;8.17;5.40;;;10.10;99.90;;;;;;4877162;29;20293;-75
2023/03/23 02:06:03;;;;;;;12.10;5.80;;;10.10;99.90;;;;;;4876518;29;20669;-75
2023/03/23 02:08:32;;;;;;;11.20;5.57;;;10.10;99.90;;;;;;4868040;29;20340;-75
2023/03/23 02:10:58;;;;;;;7.73;4.93;;;10.10;99.90;;;;;;4861139;29;20288;-75
2023/03/23 02:13:25;;;;;;;8.50;5.03;;;10.10;99.90;;;;;;4834245;29;20631;-75
2023/03/23 02:16:03;;;;;;;10.73;5.17;;;10.10;99.90;;;;;;4843578;29;20295;-75
2023/03/23 02:19:04;;;;;;;8.80;4.90;;;10.10;99.90;;;;;;4863720;29;20385;-75
2023/03/23 02:21:49;;;;;;;8.40;4.30;;;10.10;99.90;;;;;;4860419;29;20844;-74
2023/03/23 02:24:51;;;;;;;9.07;4.53;;;10.10;99.90;;;;;;4876794;29;20302;-74
2023/03/23 02:27:28;;;;;;;11.53;4.60;;;10.10;99.90;;;;;;4868768;29;20383;-74
2023/03/23 02:30:07;;;;;;;8.07;4.43;;;10.10;99.90;;;;;;4881430;29;20289;-74
2023/03/23 02:33:11;;;;;;;7.57;4.20;;;10.10;99.90;;;;;;4878690;29;20304;-74
2023/03/23 02:35:47;;;;;;;10.63;4.17;;;10.10;99.90;;;;;;4874838;29;20292;-75
2023/03/23 02:38:35;;;;;;;6.70;4.20;;;10.10;99.90;;;;;;4876456;29;20289;-74
2023/03/23 02:41:03;;;;;;;9.80;5.03;;;10.10;99.90;;;;;;4850948;29;20323;-74
2023/03/23 02:43:40;;;;;;;7.20;4.13;;;10.10;99.90;;;;;;4861221;29;20352;-75
2023/03/23 02:46:08;;;;;;;9.07;4.43;;;10.10;99.90;;;;;;4858848;29;20293;-74
2023/03/23 02:48:36;;;;;;;7.47;4.10;;;10.10;99.90;;;;;;4875669;29;20284;-75
2023/03/23 02:51:03;;;;;;;6.20;4.23;;;10.20;99.90;;;;;;4878032;29;20331;-74
2023/03/23 02:53:30;;;;;;;6.20;4.00;;;10.20;99.90;;;;;;4842043;29;20329;-75
2023/03/23 02:55:57;;;;;;;7.77;4.57;;;10.20;99.90;;;;;;4875478;29;20292;-74
2023/03/23 02:58:23;;;;;;;8.33;4.27;;;10.20;99.90;;;;;;4865213;29;20369;-74
2023/03/23 03:00:50;;;;;;;8.03;3.60;;;10.20;99.90;;;;;;4843957;29;20415;-75
2023/03/23 03:03:20;;;;;;;9.73;3.90;;;10.20;99.90;;;;;;4844825;29;20045;-75
2023/03/23 03:06:21;;;;;;;9.23;3.90;;;10.20;99.90;;;;;;4855421;29;20293;-75
2023/03/23 03:09:16;;;;;;;7.23;3.20;;;10.30;99.90;;;;;;4871591;29;20375;-74
2023/03/23 03:11:48;;;;;;;10.23;3.40;;;10.30;99.90;;;;;;4881450;29;20325;-75
2023/03/23 03:14:21;;;;;;;8.07;3.70;;;10.20;99.90;;;;;;4875620;29;20296;-75
2023/03/23 03:16:50;;;;;;;7.17;3.90;;;10.20;99.90;;;;;;4875682;29;20296;-74
2023/03/23 03:19:19;;;;;;;9.27;3.63;;;10.30;99.90;;;;;;4867634;29;20293;-74
2023/03/23 03:21:46;;;;;;;9.53;4.53;;;10.20;99.90;;;;;;4863753;29;20344;-74
2023/03/23 03:24:15;;;;;;;6.20;3.60;;;10.20;99.90;;;;;;4851226;29;20293;-74
2023/03/23 03:26:47;;;;;;;9.03;3.47;;;10.10;99.90;;;;;;4869800;29;20285;-74
2023/03/23 03:29:18;;;;;;;10.17;4.50;;;10.10;99.90;;;;;;4869138;29;20284;-74
2023/03/23 03:31:45;;;;;;;8.53;4.60;;;10.00;99.90;;;;;;4847528;29;20281;-73
2023/03/23 03:34:17;;;;;;;11.27;4.23;;;10.00;99.90;;;;;;4870628;29;20304;-73
2023/03/23 03:36:45;;;;;;;8.00;4.17;;;10.00;99.90;;;;;;4847194;29;20344;-74
2023/03/23 03:39:14;;;;;;;8.77;3.77;;;10.00;99.90;;;;;;4854008;29;20306;-74
2023/03/23 03:41:41;;;;;;;10.97;4.13;;;9.90;99.90;;;;;;4875106;29;20315;-74
2023/03/23 03:44:07;;;;;;;8.23;3.83;;;9.90;99.90;;;;;;4859479;29;20340;-74
2023/03/23 03:46:34;;;;;;;7.87;3.93;;;9.90;99.90;;;;;;4854700;29;20801;-74
2023/03/23 03:49:02;;;;;;;9.23;4.07;;;9.90;99.90;;;;;;4858058;29;20320;-74
2023/03/23 03:51:29;;;;;;;8.43;3.80;;;9.90;99.90;;;;;;4850112;29;20806;-74
2023/03/23 03:53:55;;;;;;;9.20;4.23;;;9.80;99.90;;;;;;4860543;29;20688;-74
2023/03/23 03:56:24;;;;;;;8.57;3.07;;;9.80;99.90;;;;;;4874783;29;20297;-74
2023/03/23 03:58:50;;;;;;;10.70;3.30;;;9.80;99.90;;;;;;4859308;29;20865;-74
2023/03/23 04:01:17;;;;;;;8.60;3.20;;;9.80;99.90;;;;;;4875124;29;20309;-74
2023/03/23 04:03:44;;;;;;;7.35;3.00;;;9.80;99.90;;;;;;4842099;29;20285;-74
2023/03/23 04:06:12;;;;;;;10.48;2.78;;;9.80;99.90;;;;;;4872722;29;20136;-74
2023/03/23 04:08:40;;;;;;;9.93;3.20;;;9.80;99.90;;;;;;4843377;29;20127;-74
2023/03/23 04:11:07;;;;;;;6.57;2.17;;;9.80;99.90;;;;;;4852179;29;20473;-74
2023/03/23 04:13:33;;;;;;;6.67;1.87;;;9.70;99.90;;;;;;4874302;29;20293;-74
2023/03/23 04:16:00;;;;;;;5.00;1.90;;;9.70;99.90;;;;;;4848970;29;20316;-74
2023/03/23 04:18:26;;;;;;;12.47;3.33;;;9.60;99.90;;;;;;4856727;29;20044;-74
2023/03/23 04:20:52;;;;;;;9.90;2.85;;;9.60;99.90;;;;;;4852069;29;20313;-74
2023/03/23 04:23:21;;;;;;;7.63;2.70;;;9.60;99.90;;;;;;4859851;29;20482;-74
2023/03/23 04:25:48;;;;;;;11.63;2.08;;;9.60;99.90;;;;;;4865367;29;20500;-74
2023/03/23 04:28:16;;;;;;;10.43;2.33;;;9.70;99.90;;;;;;4848846;29;20052;-74
2023/03/23 04:30:42;;;;;;;12.60;2.80;;;9.70;99.90;;;;;;4874020;29;20569;-74
2023/03/23 04:33:14;;;;;;;13.07;2.40;;;9.70;99.90;;;;;;4864391;29;20111;-74
2023/03/23 04:35:41;;;;;;;17.17;2.33;;;9.60;99.90;;;;;;4849467;29;20056;-74
2023/03/23 04:38:07;;;;;;;12.93;2.40;;;9.70;99.90;;;;;;4865691;29;20516;-74
2023/03/23 04:40:36;;;;;;;12.83;2.73;;;9.70;99.90;;;;;;4877426;29;20174;-74
2023/03/23 04:43:05;;;;;;;11.85;2.65;;;9.70;99.90;;;;;;4846016;29;20293;-74
2023/03/23 04:45:32;;;;;;;14.18;2.85;;;9.70;99.90;;;;;;4862369;29;20409;-74
2023/03/23 04:47:58;;;;;;;14.43;3.20;;;9.70;99.90;;;;;;4858746;29;20096;-74
2023/03/23 04:50:30;;;;;;;11.93;3.17;;;9.80;99.90;;;;;;4846961;29;20044;-74
2023/03/23 04:52:57;;;;;;;21.23;2.83;;;9.80;99.90;;;;;;4869206;29;20056;-74
2023/03/23 04:55:25;;;;;;;16.65;3.33;;;9.70;99.90;;;;;;4858511;29;20111;-74
2023/03/23 04:57:51;;;;;;;12.55;2.72;;;9.70;99.90;;;;;;4884421;29;20086;-74
2023/03/23 05:00:20;;;;;;;13.20;3.50;;;9.60;99.90;;;;;;4853140;29;20454;-74
2023/03/23 05:02:46;;;;;;;16.00;3.03;;;9.60;99.90;;;;;;4859821;29;20685;-74
2023/03/23 05:05:14;;;;;;;21.92;3.67;;;9.50;99.90;;;;;;4846989;29;20048;-74
2023/03/23 05:07:41;;;;;;;18.52;3.67;;;9.50;99.90;;;;;;4880137;29;20509;-74
2023/03/23 05:10:08;;;;;;;15.48;2.70;;;9.50;99.90;;;;;;4888431;29;20092;-74
2023/03/23 05:12:34;;;;;;;18.05;3.40;;;9.40;99.90;;;;;;4855373;29;20052;-74
2023/03/23 05:15:00;;;;;;;21.03;3.77;;;9.40;99.90;;;;;;4846253;29;20036;-74
2023/03/23 05:17:26;;;;;;;18.05;3.55;;;9.50;99.90;;;;;;4861391;29;20052;-74
2023/03/23 05:19:53;;;;;;;28.73;3.97;;;9.40;99.90;;;;;;4865005;29;20041;-74
2023/03/23 05:22:20;;;;;;;22.63;3.83;;;9.40;99.90;;;;;;4843816;29;20584;-74
2023/03/23 05:24:47;;;;;;;27.27;4.00;;;9.30;99.90;;;;;;4861795;29;20405;-73
2023/03/23 05:27:14;;;;;;;23.45;4.03;;;9.30;99.90;;;;;;4877203;29;20383;-74
2023/03/23 05:29:40;;;;;;;24.55;3.80;;;9.30;99.90;;;;;;4848351;29;20525;-74
2023/03/23 05:32:10;;;;;;;19.95;3.80;;;9.30;99.90;;;;;;4866440;29;20055;-74
2023/03/23 05:34:36;;;;;;;19.92;3.42;;;9.30;99.90;;;;;;4854753;29;20059;-74
2023/03/23 05:37:03;;;;;;;17.13;4.00;;;9.30;99.90;;;;;;4865437;29;20496;-74
2023/03/23 05:39:30;;;;;;;20.75;3.63;;;9.30;99.90;;;;;;4852403;29;20434;-73
2023/03/23 05:41:57;;;;;;;20.45;3.13;;;9.30;99.90;;;;;;4855515;29;20065;-73
2023/03/23 05:44:23;;;;;;;19.42;3.40;;;9.30;99.90;;;;;;4832945;29;20048;-74
2023/03/23 05:46:49;;;;;;;25.63;4.45;;;9.30;99.90;;;;;;4864277;29;20040;-74
2023/03/23 05:49:18;;;;;;;19.50;3.87;;;9.30;99.90;;;;;;4874073;29;20045;-74
2023/03/23 05:51:45;;;;;;;19.77;3.97;;;9.40;99.90;;;;;;4844267;29;20045;-74
2023/03/23 05:54:13;;;;;;;22.02;3.75;;;9.40;99.90;;;;;;4855287;29;20047;-73
2023/03/23 05:56:38;;;;;;;28.25;4.45;;;9.50;99.90;;;;;;4859242;29;20049;-73
2023/03/23 05:59:04;;;;;;;22.67;3.57;;;9.50;99.90;;;;;;4839951;29;20049;-74
2023/03/23 06:01:31;;;;;;;12.53;2.10;;;9.40;99.90;;;;;;4866528;29;20045;-74
2023/03/23 06:03:58;;;;;;;11.05;2.08;;;9.30;99.90;;;;;;4857284;29;20079;-74
2023/03/23 06:06:29;;;;;;;14.68;1.80;;;9.10;99.90;;;;;;4874284;29;20049;-73
2023/03/23 06:08:56;;;;;;;9.57;1.58;;;9.00;99.90;;;;;;4860776;29;20177;-73
2023/03/23 06:11:23;;;;;;;11.05;2.42;;;8.80;99.90;;;;;;4849394;29;20077;-73
2023/03/23 06:13:49;;;;;;;13.73;2.50;;;8.80;99.90;;;;;;4851296;29;20136;-73
2023/03/23 06:16:14;;;;;;;13.27;2.60;;;8.80;99.90;;;;;;4866731;29;20555;-73
2023/03/23 06:18:42;;;;;;;15.43;2.37;;;8.80;99.90;;;;;;4860671;29;20047;-73
2023/03/23 06:21:08;;;;;;;14.60;2.42;;;8.80;99.90;;;;;;4863481;29;20056;-74
2023/03/23 06:23:35;;;;;;;16.85;2.60;;;8.80;99.90;;;;;;4871919;29;20150;-73
2023/03/23 06:26:05;;;;;;;10.75;1.85;;;8.80;99.90;;;;;;4855668;29;20041;-73
2023/03/23 06:28:31;;;;;;;9.68;1.80;;;8.80;99.90;;;;;;4871459;29;20115;-73
2023/03/23 06:31:06;;;;;;;11.13;2.63;;;8.80;99.90;;;;;;4846022;29;20056;-73
2023/03/23 06:33:37;;;;;;;15.52;2.53;;;8.80;99.90;;;;;;4867809;29;20105;-73
2023/03/23 06:36:04;;;;;;;19.88;3.38;;;8.80;99.90;;;;;;4844712;29;20052;-73
2023/03/23 06:38:31;;;;;;;15.98;3.30;;;8.90;99.90;;;;;;4834056;29;1169075;-73
2023/03/23 06:40:57;;;;;;;17.20;3.40;;;9.00;99.90;;;;;;4863578;29;20060;-73
2023/03/23 06:43:24;;;;;;;23.85;4.10;;;9.10;99.90;;;;;;4876270;29;20072;-73
2023/03/23 06:45:51;;;;;;;23.92;4.45;;;9.20;99.90;;;;;;4857454;29;20044;-74
2023/03/23 06:48:17;;;;;;;25.73;4.45;;;9.20;99.90;;;;;;4858999;29;20123;-73
2023/03/23 06:50:44;;;;;;;26.92;4.60;;;9.30;99.90;;;;;;4849869;29;20074;-73
2023/03/23 06:53:10;;;;;;;28.48;3.95;;;9.30;99.90;;;;;;4865697;29;20051;-74
2023/03/23 06:55:37;;;;;;;24.90;5.10;;;9.30;99.90;;;;;;4863549;29;20405;-74
2023/03/23 06:58:05;;;;;;;24.50;4.25;;;9.40;99.90;;;;;;4845286;29;20049;-73
2023/03/23 07:00:32;;;;;;;28.05;4.95;;;9.40;99.90;;;;;;4837194;29;20068;-73
2023/03/23 07:02:58;;;;;;;25.40;4.70;;;9.40;99.90;;;;;;4876832;29;20119;-73
2023/03/23 07:05:25;;;;;;;20.98;4.32;;;9.50;99.90;;;;;;4861473;29;20044;-73
2023/03/23 07:07:51;;;;;;;24.45;4.15;;;9.50;99.90;;;;;;4837027;29;20041;-74
2023/03/23 07:10:17;;;;;;;31.27;4.80;;;9.50;99.90;;;;;;4873099;29;20053;-74
2023/03/23 07:12:42;;;;;;;24.08;4.05;;;9.60;99.90;;;;;;4861387;29;20327;-74
2023/03/23 07:15:10;;;;;;;31.17;4.93;;;9.60;99.90;;;;;;4861229;29;20084;-74
2023/03/23 07:17:39;;;;;;;25.17;4.70;;;9.60;99.90;;;;;;4850268;29;20053;-74
2023/03/23 07:20:07;;;;;;;24.92;4.00;;;9.60;99.90;;;;;;4871832;29;20491;-74
2023/03/23 07:22:33;;;;;;;27.88;4.75;;;9.70;99.90;;;;;;4868562;29;20500;-73
2023/03/23 07:24:59;;;;;;;24.90;4.78;;;9.70;99.90;;;;;;4839285;29;20045;-73
2023/03/23 07:27:25;;;;;;;32.53;5.03;;;9.80;99.90;;;;;;4852642;29;20044;-73
2023/03/23 07:29:51;;;;;;;28.83;5.00;;;9.80;99.90;;;;;;4840113;29;20047;-73
2023/03/23 07:32:17;;;;;;;27.77;4.70;;;9.80;99.90;;;;;;4872728;29;20127;-73
2023/03/23 07:34:43;;;;;;;35.28;5.68;;;9.80;99.90;;;;;;4869555;29;20509;-73
2023/03/23 07:37:09;;;;;;;31.47;4.50;;;9.70;99.90;;;;;;4854881;29;20044;-73
2023/03/23 07:39:35;;;;;;;27.23;5.18;;;9.70;99.90;;;;;;4860587;29;20056;-73
2023/03/23 07:42:02;;;;;;;30.15;5.43;;;9.60;99.90;;;;;;4862834;29;20056;-73
2023/03/23 07:44:27;;;;;;;30.25;5.20;;;9.60;99.90;;;;;;4878919;29;20063;-73
2023/03/23 07:46:53;;;;;;;32.97;6.03;;;9.60;99.90;;;;;;4840444;29;20045;-73
2023/03/23 07:49:19;;;;;;;28.97;5.30;;;9.60;99.90;;;;;;4847960;29;20044;-73
2023/03/23 07:51:45;;;;;;;25.20;4.93;;;9.60;99.90;;;;;;4854463;29;20040;-73
2023/03/23 07:54:11;;;;;;;33.20;5.93;;;9.60;99.90;;;;;;4845734;29;20171;-73
2023/03/23 07:56:39;;;;;;;28.77;6.25;;;9.70;99.90;;;;;;4864190;29;20051;-73
2023/03/23 07:59:06;;;;;;;26.75;6.43;;;9.70;99.90;;;;;;4856522;29;20045;-73
2023/03/23 08:01:33;;;;;;;24.38;5.22;;;9.80;99.90;;;;;;4858597;29;20036;-73
2023/03/23 08:03:59;;;;;;;31.33;5.37;;;9.80;99.90;;;;;;4858481;29;20896;-73
2023/03/23 08:06:26;;;;;;;31.47;4.90;;;9.80;99.90;;;;;;4875788;29;20312;-73
2023/03/23 08:08:52;;;;;;;35.97;7.37;;;9.80;99.90;;;;;;4840491;29;20426;-73
2023/03/23 08:11:19;;;;;;;31.17;6.68;;;9.80;99.90;;;;;;4855601;29;20736;-73
2023/03/23 08:13:46;;;;;;;26.65;5.07;;;9.80;99.90;;;;;;4852000;29;20541;-73
2023/03/23 08:16:13;;;;;;;28.45;5.70;;;9.70;99.90;;;;;;4882763;29;20059;-73
2023/03/23 08:18:39;;;;;;;24.90;5.55;;;9.70;99.90;;;;;;4847715;29;20048;-73
2023/03/23 08:21:09;;;;;;;31.07;6.03;;;9.70;99.90;;;;;;4854900;29;20127;-73
2023/03/23 08:23:36;;;;;;;28.77;4.78;;;9.70;99.90;;;;;;4858285;29;20758;-73
2023/03/23 08:26:04;;;;;;;31.20;6.05;;;9.70;99.90;;;;;;4856175;29;20115;-73
2023/03/23 08:28:30;;;;;;;27.20;5.93;;;9.80;99.90;;;;;;4857535;29;20056;-73
2023/03/23 08:30:56;;;;;;;28.00;5.47;;;9.90;99.90;;;;;;4874478;29;20047;-73
2023/03/23 08:33:22;;;;;;;32.17;5.30;;;10.10;99.90;;;;;;4837859;29;20108;-73
2023/03/23 08:35:58;;;;;;;28.63;5.37;;;10.20;99.90;;;;;;4851361;29;20881;-73
2023/03/23 08:38:24;;;;;;;31.07;5.20;;;10.30;99.90;;;;;;4856612;29;20048;-73
2023/03/23 08:40:51;;;;;;;30.47;5.33;;;10.40;99.90;;;;;;4854035;29;20321;-73
2023/03/23 08:43:18;;;;;;;35.00;6.10;;;10.50;99.90;;;;;;4870656;29;20320;-73
2023/03/23 08:45:43;;;;;;;37.07;6.07;;;10.50;99.90;;;;;;4877912;29;20312;-73
2023/03/23 08:48:10;;;;;;;28.63;5.17;;;10.60;99.90;;;;;;4832332;29;20320;-73
2023/03/23 08:50:36;;;;;;;34.33;5.37;;;10.60;99.90;;;;;;4866520;29;20115;-73
2023/03/23 08:53:02;;;;;;;31.03;6.27;;;10.70;99.90;;;;;;4873613;29;20969;-73
2023/03/23 08:55:29;;;;;;;26.67;5.30;;;10.70;99.90;;;;;;4837677;29;20051;-73
2023/03/23 08:57:55;;;;;;;31.37;5.77;;;10.70;99.90;;;;;;4870194;29;20300;-73
2023/03/23 09:00:24;;;;;;;33.63;7.63;;;10.70;99.90;;;;;;4840942;29;20305;-73
2023/03/23 09:02:52;;;;;;;32.43;7.57;;;10.80;99.90;;;;;;4871164;29;20380;-73
2023/03/23 09:05:21;;;;;;;29.00;7.97;;;10.80;99.90;;;;;;4855282;29;20818;-73
2023/03/23 09:07:50;;;;;;;34.60;6.00;;;10.90;99.90;;;;;;4872462;29;20288;-73
2023/03/23 09:10:17;;;;;;;37.43;9.23;;;10.90;99.90;;;;;;4857814;29;20303;-73
2023/03/23 09:12:44;;;;;;;32.47;6.37;;;10.90;99.90;;;;;;4860635;29;20289;-73
2023/03/23 09:15:14;;;;;;;37.53;7.17;;;10.70;99.90;;;;;;4845191;29;20303;-73
2023/03/23 09:17:45;;;;;;;38.77;8.40;;;10.70;99.90;;;;;;4873498;29;20355;-73
2023/03/23 09:20:13;;;;;;;35.03;6.40;;;10.80;99.90;;;;;;4864692;29;20312;-73
2023/03/23 09:22:41;;;;;;;28.50;5.90;;;10.90;99.90;;;;;;4857715;29;20379;-73
2023/03/23 09:25:08;;;;;;;33.87;5.37;;;11.00;99.90;;;;;;4868401;29;20297;-73
2023/03/23 09:27:36;;;;;;;33.97;6.07;;;11.10;99.90;;;;;;4875947;29;20284;-73
2023/03/23 09:30:06;;;;;;;26.43;5.20;;;11.10;99.90;;;;;;4877992;29;20848;-73
2023/03/23 09:32:34;;;;;;;31.77;5.20;;;11.30;99.90;;;;;;4860070;29;20990;-73
2023/03/23 09:35:01;;;;;;;31.77;5.93;;;11.40;99.90;;;;;;4845513;29;20589;-73
2023/03/23 09:37:29;;;;;;;33.23;4.97;;;11.40;99.90;;;;;;4843637;29;20332;-73
2023/03/23 09:56:32;;;;;;;24.07;6.90;;;11.80;99.90;;;;;;2674859;23;20882;-74
2023/03/23 09:59:05;;;;;;;33.03;5.37;;;11.60;99.90;;;;;;4802002;29;20821;-74
2023/03/23 10:04:32;;;;;;;22.23;4.57;;;11.40;99.90;;;;;;5094645;23;20856;-73
2023/03/23 10:07:23;;;;;;;21.63;3.80;;;11.50;99.90;;;;;;4875004;29;20320;-76
2023/03/23 10:09:53;;;;;;;28.30;5.37;;;11.50;99.90;;;;;;4864636;29;20348;-76
2023/03/23 10:12:30;;;;;;;24.30;5.07;;;11.60;99.90;;;;;;4882690;29;20333;-76
2023/03/23 10:15:08;;;;;;;27.77;4.80;;;11.70;99.90;;;;;;4886929;29;20289;-76
2023/03/23 10:17:47;;;;;;;24.90;5.07;;;11.70;99.90;;;;;;4883296;29;20297;-76
2023/03/23 10:20:20;;;;;;;21.27;4.80;;;11.70;99.90;;;;;;4866057;29;20323;-76
2023/03/23 10:23:11;;;;;;;26.07;5.40;;;11.70;99.90;;;;;;4864944;29;20388;-76
2023/03/23 10:25:41;;;;;;;27.53;5.43;;;11.60;99.90;;;;;;4876465;29;20333;-76
2023/03/23 10:28:22;;;;;;;23.37;5.57;;;11.50;99.90;;;;;;4881166;29;20340;-76
2023/03/23 10:30:56;;;;;;;24.40;4.50;;;11.40;99.90;;;;;;4879686;29;20289;-76
2023/03/23 10:33:38;;;;;;;28.33;5.10;;;11.20;99.90;;;;;;4865699;29;20303;-77
2023/03/23 10:36:13;;;;;;;25.90;4.67;;;11.10;99.90;;;;;;4865510;29;20739;-76
2023/03/23 10:38:47;;;;;;;27.60;6.87;;;11.00;99.90;;;;;;4879573;29;20789;-76
2023/03/23 10:41:16;;;;;;;23.00;5.80;;;11.00;99.90;;;;;;4864847;29;20301;-77
2023/03/23 10:43:43;;;;;;;25.77;4.37;;;11.00;99.90;;;;;;4864933;29;20746;-76
2023/03/23 10:46:41;;;;;;;22.70;4.60;;;11.10;99.90;;;;;;4880758;29;20792;-77
2023/03/23 10:49:13;;;;;;;27.13;4.33;;;11.30;99.90;;;;;;4865178;29;20288;-76
2023/03/23 10:51:44;;;;;;;23.90;4.90;;;11.40;99.90;;;;;;4877179;29;20292;-76
2023/03/23 10:54:10;;;;;;;20.50;3.93;;;11.40;99.90;;;;;;4877676;29;20291;-76
2023/03/23 10:56:42;;;;;;;24.00;3.77;;;11.60;99.90;;;;;;4869534;29;20277;-76
2023/03/23 10:59:26;;;;;;;19.87;4.27;;;11.70;99.90;;;;;;4865253;29;20364;-76
2023/03/23 11:01:55;;;;;;;20.43;3.63;;;11.90;99.90;;;;;;4866127;29;20305;-76
2023/03/23 11:04:22;;;;;;;20.20;3.73;;;12.00;99.90;;;;;;4858997;29;20321;-74
2023/03/23 11:06:52;;;;;;;20.37;4.03;;;12.30;99.90;;;;;;4881131;29;20281;-74
2023/03/23 11:09:21;;;;;;;17.20;4.20;;;12.50;99.90;;;;;;4866195;29;20295;-75
2023/03/23 11:11:55;;;;;;;23.30;4.60;;;12.70;99.90;;;;;;4878602;29;20333;-74
2023/03/23 11:14:30;;;;;;;32.40;9.57;;;12.90;99.90;;;;;;4880157;29;20300;-74
2023/03/23 11:16:58;;;;;;;19.05;5.43;;;13.20;99.90;;;;;;4864466;29;20360;-77
2023/03/23 11:19:28;;;;;;;17.17;5.67;;;13.40;99.90;;;;;;4883886;29;20041;-77
2023/03/23 11:22:14;;;;;;;23.13;6.40;;;13.60;99.90;;;;;;4882017;29;20647;-77
2023/03/23 11:24:44;;;;;;;;;;;13.50;99.90;;;;;;4865914;29;20293;-77
2023/03/23 11:27:11;;;;;;;14.93;3.10;;;13.40;99.90;;;;;;4859523;29;19920;-76
2023/03/23 11:29:51;;;;;;;16.67;8.63;;;13.50;99.90;;;;;;4866418;29;20297;-76
2023/03/23 11:32:18;;;;;;;28.37;9.27;;;13.60;99.90;;;;;;4864290;29;20285;-75
2023/03/23 11:34:47;;;;;;;32.77;11.33;;;13.70;99.90;;;;;;4864002;29;20303;-75
2023/03/23 11:37:40;;;;;;;24.03;6.80;;;13.90;99.90;;;;;;4876977;29;20292;-74
2023/03/23 11:40:09;;;;;;;17.17;3.40;;;14.00;99.90;;;;;;4856279;29;20369;-74
2023/03/23 11:42:45;;;;;;;17.13;4.13;;;13.90;99.90;;;;;;4869359;29;20820;-75
2023/03/23 11:45:20;;;;;;;21.17;3.10;;;14.00;99.90;;;;;;4866530;29;21035;-75
2023/03/23 11:47:46;;;;;;;;;;;14.00;99.90;;;;;;4867961;29;20307;-75
2023/03/23 11:50:23;;;;;;;20.63;3.40;;;14.00;99.90;;;;;;4883805;29;19919;-75
2023/03/23 11:53:15;;;;;;;15.57;3.33;;;13.90;99.90;;;;;;4881916;29;20045;-74
2023/03/23 11:55:44;;;;;;;18.27;3.40;;;13.90;99.90;;;;;;4862776;29;20693;-74
2023/03/23 11:58:16;;;;;;;18.10;3.60;;;14.00;99.90;;;;;;4870221;29;20301;-74
2023/03/23 12:01:09;;;;;;;18.37;3.00;;;14.00;99.90;;;;;;4864975;29;20328;-75
2023/03/23 12:03:54;;;;;;;18.67;3.20;;;14.20;99.90;;;;;;4858724;29;20301;-74
2023/03/23 12:06:35;;;;;;;21.83;3.55;;;14.10;98.80;;;;;;4871814;29;20297;-74
2023/03/23 12:09:32;;;;;;;22.77;4.60;;;14.10;99.90;;;;;;4887202;29;20489;-75
2023/03/23 12:12:24;;;;;;;16.57;3.73;;;14.10;98.90;;;;;;4867977;29;20384;-74
2023/03/23 12:14:58;;;;;;;18.13;3.40;;;14.10;99.10;;;;;;4863105;29;20293;-75
2023/03/23 12:17:49;;;;;;;16.77;4.22;;;14.20;99.90;;;;;;4867424;29;20296;-75
2023/03/23 12:20:34;;;;;;;21.80;3.97;;;14.20;99.80;;;;;;4881759;29;20497;-74
2023/03/23 12:23:22;;;;;;;22.33;5.30;;;14.10;97.20;;;;;;4881102;29;20843;-75
2023/03/23 12:26:07;;;;;;;19.47;3.27;;;14.00;99.60;;;;;;4884108;29;20289;-75
2023/03/23 12:28:38;;;;;;;18.27;2.70;;;13.90;99.90;;;;;;4883302;29;20694;-74
2023/03/23 12:31:16;;;;;;;18.00;3.33;;;14.10;99.90;;;;;;4882309;29;20281;-75
2023/03/23 12:33:54;;;;;;;19.70;3.53;;;14.10;97.30;;;;;;4880734;29;20281;-75
2023/03/23 12:36:47;;;;;;;19.13;3.20;;;14.00;97.90;;;;;;4878574;29;20316;-75
2023/03/23 12:39:33;;;;;;;18.67;3.67;;;14.00;99.00;;;;;;4871961;29;20867;-75
2023/03/23 12:42:05;;;;;;;21.70;4.03;;;14.10;95.30;;;;;;4882723;29;21142;-75
2023/03/23 12:44:39;;;;;;;18.53;3.80;;;14.20;97.20;;;;;;4871265;29;20292;-75
2023/03/23 12:47:34;;;;;;;18.73;3.43;;;14.20;92.80;;;;;;4881345;29;20324;-75
2023/03/23 12:50:24;;;;;;;17.33;3.30;;;14.00;94.10;;;;;;4832249;29;20293;-75
2023/03/23 12:53:05;;;;;;;15.93;3.30;;;13.80;94.70;;;;;;4867772;29;20284;-75
2023/03/23 12:55:59;;;;;;;16.97;3.37;;;13.80;92.90;;;;;;4864131;29;20286;-75
2023/03/23 12:58:32;;;;;;;15.83;3.50;;;13.60;94.70;;;;;;4883298;29;20724;-76
2023/03/23 13:01:11;;;;;;;17.87;3.17;;;13.70;95.20;;;;;;4867780;29;20309;-75
2023/03/23 13:03:49;;;;;;;19.50;3.13;;;13.90;99.90;;;;;;4866690;29;20304;-75
2023/03/23 13:06:36;;;;;;;21.47;4.00;;;14.10;99.90;;;;;;4872260;29;20277;-75
2023/03/23 13:09:23;;;;;;;15.53;3.43;;;14.40;91.40;;;;;;4887100;29;20292;-76
2023/03/23 13:11:51;;;;;;;19.27;3.67;;;14.60;88.20;;;;;;4869967;29;20855;-75
2023/03/23 13:14:31;;;;;;;23.13;3.23;;;14.60;87.80;;;;;;4888438;29;20281;-76
2023/03/23 13:17:22;;;;;;;24.27;3.73;;;14.60;88.70;;;;;;4866718;29;20301;-74
2023/03/23 13:20:19;;;;;;;13.83;3.40;;;14.50;86.90;;;;;;4870808;29;20773;-75
2023/03/23 13:22:57;;;;;;;16.70;3.70;;;14.50;91.70;;;;;;4886111;29;20321;-75